UAE3HJ YSSY-NZCH
Flight info
| Callsign | UAE3HJ |
|---|---|
| Flight time | N/A |
| Altitude | 39000 |
| Route | CAWLY M636 PLUGA N750 VANDA |
| Aircraft | A388/J-SADE2E3FGHIJ3J4J5M1RWXY/LB1D1 |
Departure
| Time | 2026-05-06 07:36 |
|---|---|
| Airport | Sydney Kingsford Smith International Airport (YSSY) |
Arrival
| Time | N/A |
|---|---|
| Airport | Christchurch International Airport (NZCH) |
| Time | Latitude | Longitude | Altitude | Speed | Heading |
|---|---|---|---|---|---|
| 2026-05-06 07:11 | -33.94062 | 151.16386 | 35 ft | 0 kts | 43° |
| 2026-05-06 07:17 | -33.94061 | 151.16387 | 35 ft | 0 kts | 43° |
| 2026-05-06 07:20 | -33.94062 | 151.16386 | 35 ft | 0 kts | 43° |
| 2026-05-06 07:22 | -33.94065 | 151.16383 | 35 ft | 4 kts | 27° |
| 2026-05-06 07:22 | -33.94083 | 151.16370 | 33 ft | 4 kts | 36° |
| 2026-05-06 07:23 | -33.94102 | 151.16349 | 33 ft | 4 kts | 56° |
| 2026-05-06 07:23 | -33.94111 | 151.16324 | 35 ft | 4 kts | 84° |
| 2026-05-06 07:23 | -33.94108 | 151.16300 | 33 ft | 4 kts | 120° |
| 2026-05-06 07:23 | -33.94094 | 151.16285 | 33 ft | 4 kts | 158° |
| 2026-05-06 07:24 | -33.94071 | 151.16278 | 33 ft | 4 kts | 178° |
| 2026-05-06 07:24 | -33.94048 | 151.16279 | 33 ft | 1 kts | 183° |
| 2026-05-06 07:24 | -33.94046 | 151.16279 | 31 ft | 0 kts | 183° |
| 2026-05-06 07:28 | -33.94037 | 151.16279 | 29 ft | 0 kts | 183° |
| 2026-05-06 07:28 | -33.94101 | 151.16281 | 33 ft | 8 kts | 166° |
| 2026-05-06 07:29 | -33.94159 | 151.16309 | 35 ft | 8 kts | 133° |
| 2026-05-06 07:29 | -33.94170 | 151.16370 | 35 ft | 8 kts | 82° |
| 2026-05-06 07:29 | -33.94156 | 151.16443 | 35 ft | 10 kts | 75° |
| 2026-05-06 07:29 | -33.94136 | 151.16529 | 35 ft | 11 kts | 75° |
| 2026-05-06 07:30 | -33.94114 | 151.16622 | 35 ft | 12 kts | 73° |
| 2026-05-06 07:30 | -33.94089 | 151.16721 | 35 ft | 13 kts | 72° |
| 2026-05-06 07:30 | -33.94063 | 151.16826 | 35 ft | 13 kts | 73° |
| 2026-05-06 07:30 | -33.94037 | 151.16937 | 35 ft | 14 kts | 75° |
| 2026-05-06 07:31 | -33.94011 | 151.17052 | 35 ft | 15 kts | 75° |
| 2026-05-06 07:31 | -33.93987 | 151.17158 | 34 ft | 11 kts | 72° |
| 2026-05-06 07:31 | -33.93940 | 151.17211 | 34 ft | 9 kts | 6° |
| 2026-05-06 07:31 | -33.93867 | 151.17198 | 34 ft | 12 kts | 347° |
| 2026-05-06 07:32 | -33.93777 | 151.17174 | 34 ft | 14 kts | 347° |
| 2026-05-06 07:32 | -33.93674 | 151.17146 | 34 ft | 16 kts | 347° |
| 2026-05-06 07:32 | -33.93560 | 151.17116 | 34 ft | 18 kts | 348° |
| 2026-05-06 07:32 | -33.93436 | 151.17085 | 35 ft | 19 kts | 348° |
| 2026-05-06 07:33 | -33.93315 | 151.17033 | 35 ft | 19 kts | 319° |
| 2026-05-06 07:33 | -33.93208 | 151.16949 | 35 ft | 19 kts | 348° |
| 2026-05-06 07:33 | -33.93087 | 151.16919 | 35 ft | 14 kts | 348° |
| 2026-05-06 07:33 | -33.93017 | 151.16913 | 35 ft | 8 kts | 21° |
| 2026-05-06 07:34 | -33.92983 | 151.16955 | 35 ft | 6 kts | 66° |
| 2026-05-06 07:34 | -33.92974 | 151.16991 | 35 ft | 6 kts | 77° |
| 2026-05-06 07:34 | -33.92962 | 151.17061 | 36 ft | 10 kts | 80° |
| 2026-05-06 07:34 | -33.92969 | 151.17141 | 36 ft | 9 kts | 126° |
| 2026-05-06 07:35 | -33.93028 | 151.17184 | 35 ft | 9 kts | 165° |
| 2026-05-06 07:35 | -33.93041 | 151.17188 | 35 ft | 0 kts | 167° |
| 2026-05-06 07:35 | -33.93298 | 151.17253 | 35 ft | 78 kts | 168° |
| 2026-05-06 07:35 | -33.94054 | 151.17449 | 31 ft | 140 kts | 168° |
| 2026-05-06 07:36 | -33.95139 | 151.17732 | 50 ft | 173 kts | 165° |
| 2026-05-06 07:36 | -33.96330 | 151.18048 | 426 ft | 174 kts | 164° |
| 2026-05-06 07:36 | -33.97520 | 151.18382 | 810 ft | 178 kts | 171° |
| 2026-05-06 07:36 | -33.98811 | 151.18279 | 1007 ft | 197 kts | 190° |
| 2026-05-06 07:37 | -34.00218 | 151.17933 | 1170 ft | 215 kts | 189° |
| 2026-05-06 07:37 | -34.01766 | 151.17662 | 1355 ft | 237 kts | 184° |
| 2026-05-06 07:37 | -34.03449 | 151.17749 | 1728 ft | 255 kts | 168° |
| 2026-05-06 07:37 | -34.05225 | 151.18316 | 2284 ft | 268 kts | 164° |
| 2026-05-06 07:38 | -34.07028 | 151.18937 | 3137 ft | 269 kts | 165° |
| 2026-05-06 07:38 | -34.08830 | 151.19548 | 4038 ft | 270 kts | 166° |
| 2026-05-06 07:38 | -34.10656 | 151.20160 | 4874 ft | 273 kts | 167° |
| 2026-05-06 07:38 | -34.12489 | 151.20772 | 5705 ft | 275 kts | 167° |
| 2026-05-06 07:39 | -34.14345 | 151.21391 | 6514 ft | 279 kts | 167° |
| 2026-05-06 07:39 | -34.16229 | 151.22019 | 7263 ft | 283 kts | 167° |
| 2026-05-06 07:39 | -34.18135 | 151.22687 | 8009 ft | 289 kts | 160° |
| 2026-05-06 07:39 | -34.19814 | 151.24029 | 8776 ft | 296 kts | 134° |
| 2026-05-06 07:40 | -34.20904 | 151.26164 | 9525 ft | 302 kts | 108° |
| 2026-05-06 07:40 | -34.21390 | 151.28647 | 10246 ft | 307 kts | 99° |
| 2026-05-06 07:40 | -34.21727 | 151.31280 | 10497 ft | 328 kts | 98° |
| 2026-05-06 07:40 | -34.22096 | 151.34080 | 10686 ft | 348 kts | 99° |
| 2026-05-06 07:41 | -34.22542 | 151.37019 | 11103 ft | 359 kts | 100° |
| 2026-05-06 07:41 | -34.23028 | 151.39954 | 11675 ft | 363 kts | 101° |
| 2026-05-06 07:41 | -34.23552 | 151.43001 | 12314 ft | 368 kts | 101° |
| 2026-05-06 07:41 | -34.24080 | 151.46028 | 12934 ft | 372 kts | 101° |
| 2026-05-06 07:42 | -34.24610 | 151.49071 | 13536 ft | 377 kts | 102° |
| 2026-05-06 07:42 | -34.25152 | 151.52186 | 14112 ft | 381 kts | 102° |
| 2026-05-06 07:42 | -34.25698 | 151.55333 | 14694 ft | 384 kts | 102° |
| 2026-05-06 07:42 | -34.26247 | 151.58512 | 15275 ft | 387 kts | 102° |
| 2026-05-06 07:43 | -34.26799 | 151.61709 | 15822 ft | 390 kts | 102° |
| 2026-05-06 07:43 | -34.27355 | 151.64935 | 16371 ft | 394 kts | 102° |
| 2026-05-06 07:43 | -34.27915 | 151.68194 | 16918 ft | 398 kts | 102° |
| 2026-05-06 07:43 | -34.28479 | 151.71476 | 17468 ft | 401 kts | 102° |
| 2026-05-06 07:44 | -34.29050 | 151.74809 | 17989 ft | 405 kts | 102° |
| 2026-05-06 07:44 | -34.29623 | 151.78157 | 18506 ft | 408 kts | 102° |
| 2026-05-06 07:44 | -34.30199 | 151.81527 | 18968 ft | 411 kts | 102° |
| 2026-05-06 07:44 | -34.30778 | 151.84922 | 19419 ft | 414 kts | 102° |
| 2026-05-06 07:45 | -34.31362 | 151.88355 | 19870 ft | 417 kts | 102° |
| 2026-05-06 07:45 | -34.31947 | 151.91796 | 20311 ft | 420 kts | 102° |
| 2026-05-06 07:45 | -34.32729 | 151.95217 | 20750 ft | 423 kts | 111° |
| 2026-05-06 07:45 | -34.33931 | 151.98485 | 21186 ft | 425 kts | 120° |
| 2026-05-06 07:46 | -34.35444 | 152.01574 | 21612 ft | 427 kts | 122° |
| 2026-05-06 07:46 | -34.36973 | 152.04683 | 22042 ft | 430 kts | 122° |
| 2026-05-06 07:46 | -34.38493 | 152.07815 | 22471 ft | 433 kts | 122° |
| 2026-05-06 07:46 | -34.40019 | 152.10965 | 22877 ft | 436 kts | 122° |
| 2026-05-06 07:47 | -34.41561 | 152.14149 | 23315 ft | 439 kts | 122° |
| 2026-05-06 07:47 | -34.43115 | 152.17355 | 23721 ft | 442 kts | 122° |
| 2026-05-06 07:47 | -34.44676 | 152.20577 | 24100 ft | 444 kts | 122° |
| 2026-05-06 07:47 | -34.46241 | 152.23811 | 24481 ft | 446 kts | 122° |
| 2026-05-06 07:48 | -34.47817 | 152.27069 | 24839 ft | 449 kts | 121° |
| 2026-05-06 07:48 | -34.49379 | 152.30301 | 25219 ft | 451 kts | 121° |
| 2026-05-06 07:48 | -34.50969 | 152.33596 | 25596 ft | 453 kts | 121° |
| 2026-05-06 07:48 | -34.52566 | 152.36907 | 26000 ft | 456 kts | 121° |
| 2026-05-06 07:49 | -34.54169 | 152.40233 | 26414 ft | 458 kts | 121° |
| 2026-05-06 07:49 | -34.55779 | 152.43577 | 26832 ft | 461 kts | 121° |
| 2026-05-06 07:49 | -34.57398 | 152.46944 | 27261 ft | 463 kts | 121° |
| 2026-05-06 07:49 | -34.59031 | 152.50342 | 27698 ft | 466 kts | 121° |
| 2026-05-06 07:50 | -34.60664 | 152.53744 | 28138 ft | 469 kts | 121° |
| 2026-05-06 07:50 | -34.62310 | 152.57178 | 28586 ft | 472 kts | 121° |
| 2026-05-06 07:50 | -34.63973 | 152.60648 | 29030 ft | 475 kts | 121° |
| 2026-05-06 07:50 | -34.65635 | 152.64121 | 29480 ft | 477 kts | 121° |
| 2026-05-06 07:51 | -34.67312 | 152.67629 | 29915 ft | 480 kts | 120° |
| 2026-05-06 07:51 | -34.68990 | 152.71141 | 30331 ft | 484 kts | 120° |
| 2026-05-06 07:51 | -34.70667 | 152.74656 | 30659 ft | 488 kts | 121° |
| 2026-05-06 07:51 | -34.72397 | 152.78284 | 30995 ft | 492 kts | 121° |
| 2026-05-06 07:52 | -34.74115 | 152.81892 | 31320 ft | 496 kts | 121° |
| 2026-05-06 07:52 | -34.75828 | 152.85495 | 31686 ft | 499 kts | 121° |
| 2026-05-06 07:52 | -34.77598 | 152.89218 | 32029 ft | 503 kts | 121° |
| 2026-05-06 07:52 | -34.79324 | 152.92854 | 32449 ft | 505 kts | 121° |
| 2026-05-06 07:53 | -34.81082 | 152.96561 | 32761 ft | 509 kts | 121° |
| 2026-05-06 07:53 | -34.82859 | 153.00313 | 33089 ft | 512 kts | 121° |
| 2026-05-06 07:53 | -34.84643 | 153.04084 | 33428 ft | 516 kts | 121° |
| 2026-05-06 07:53 | -34.86442 | 153.07889 | 33756 ft | 519 kts | 121° |
| 2026-05-06 07:54 | -34.88246 | 153.11710 | 34076 ft | 523 kts | 121° |
| 2026-05-06 07:54 | -34.90069 | 153.15575 | 34371 ft | 526 kts | 121° |
| 2026-05-06 07:54 | -34.91889 | 153.19439 | 34647 ft | 529 kts | 121° |
| 2026-05-06 07:54 | -34.93737 | 153.23367 | 34940 ft | 532 kts | 121° |
| 2026-05-06 07:55 | -34.95578 | 153.27285 | 35311 ft | 533 kts | 121° |
| 2026-05-06 07:55 | -34.97420 | 153.31208 | 35682 ft | 534 kts | 121° |
| 2026-05-06 07:55 | -34.99263 | 153.35139 | 36052 ft | 535 kts | 121° |
| 2026-05-06 07:55 | -35.01119 | 153.39101 | 36417 ft | 536 kts | 121° |
| 2026-05-06 07:56 | -35.02966 | 153.43048 | 36773 ft | 537 kts | 121° |
| 2026-05-06 07:56 | -35.04818 | 153.47009 | 37198 ft | 537 kts | 121° |
| 2026-05-06 07:56 | -35.06671 | 153.50980 | 37552 ft | 538 kts | 121° |
| 2026-05-06 07:56 | -35.08518 | 153.54940 | 37886 ft | 539 kts | 121° |
| 2026-05-06 07:57 | -35.10353 | 153.58881 | 38224 ft | 540 kts | 121° |
| 2026-05-06 07:57 | -35.12209 | 153.62869 | 38565 ft | 541 kts | 121° |
| 2026-05-06 07:57 | -35.14070 | 153.66874 | 38867 ft | 541 kts | 121° |
| 2026-05-06 07:57 | -35.15927 | 153.70875 | 39080 ft | 544 kts | 120° |
| 2026-05-06 07:58 | -35.19670 | 153.78955 | 39079 ft | 543 kts | 120° |
| 2026-05-06 07:58 | -35.23389 | 153.87000 | 39105 ft | 544 kts | 120° |
| 2026-05-06 07:59 | -35.26471 | 153.93683 | 39079 ft | 542 kts | 120° |
| 2026-05-06 07:59 | -35.30805 | 154.03102 | 39081 ft | 543 kts | 120° |
| 2026-05-06 08:00 | -35.34500 | 154.11153 | 39084 ft | 543 kts | 120° |
| 2026-05-06 08:00 | -35.37577 | 154.17869 | 39084 ft | 543 kts | 120° |
| 2026-05-06 08:01 | -35.41263 | 154.25932 | 39084 ft | 543 kts | 120° |
| 2026-05-06 08:01 | -35.44948 | 154.34014 | 39083 ft | 543 kts | 120° |
| 2026-05-06 08:02 | -35.49230 | 154.43427 | 39080 ft | 542 kts | 120° |
| 2026-05-06 08:02 | -35.52304 | 154.50205 | 39079 ft | 542 kts | 120° |
| 2026-05-06 08:03 | -35.55969 | 154.58302 | 39078 ft | 542 kts | 120° |
| 2026-05-06 08:03 | -35.59633 | 154.66409 | 39078 ft | 542 kts | 120° |
| 2026-05-06 08:04 | -35.63750 | 154.74135 | 39077 ft | 541 kts | 127° |
| 2026-05-06 08:04 | -35.68110 | 154.81670 | 39079 ft | 541 kts | 127° |
| 2026-05-06 08:05 | -35.72462 | 154.89231 | 39076 ft | 541 kts | 127° |
| 2026-05-06 08:05 | -35.76807 | 154.96799 | 39073 ft | 541 kts | 127° |
| 2026-05-06 08:06 | -35.81134 | 155.04357 | 39078 ft | 540 kts | 126° |
| 2026-05-06 08:06 | -35.85467 | 155.11944 | 39077 ft | 540 kts | 126° |
| 2026-05-06 08:07 | -35.89787 | 155.19525 | 39075 ft | 540 kts | 126° |
| 2026-05-06 08:07 | -35.94108 | 155.27124 | 39074 ft | 540 kts | 126° |
| 2026-05-06 08:08 | -35.98413 | 155.34712 | 39074 ft | 540 kts | 126° |
| 2026-05-06 08:08 | -36.02720 | 155.42318 | 39073 ft | 540 kts | 126° |
| 2026-05-06 08:09 | -36.06992 | 155.49882 | 39085 ft | 540 kts | 126° |
| 2026-05-06 08:09 | -36.11290 | 155.57506 | 39082 ft | 539 kts | 126° |
| 2026-05-06 08:10 | -36.15574 | 155.65123 | 39073 ft | 539 kts | 126° |
| 2026-05-06 08:10 | -36.19845 | 155.72736 | 39066 ft | 538 kts | 126° |
| 2026-05-06 08:11 | -36.24111 | 155.80355 | 39064 ft | 538 kts | 126° |
| 2026-05-06 08:11 | -36.28371 | 155.87980 | 39064 ft | 538 kts | 126° |
| 2026-05-06 08:12 | -36.32623 | 155.95606 | 39068 ft | 538 kts | 126° |
| 2026-05-06 08:12 | -36.36876 | 156.03254 | 39064 ft | 538 kts | 126° |
| 2026-05-06 08:13 | -36.41116 | 156.10893 | 39080 ft | 538 kts | 125° |
| 2026-05-06 08:13 | -36.45358 | 156.18554 | 39074 ft | 537 kts | 125° |
| 2026-05-06 08:14 | -36.49579 | 156.26194 | 39068 ft | 537 kts | 125° |
| 2026-05-06 08:14 | -36.53782 | 156.33819 | 39067 ft | 536 kts | 125° |
| 2026-05-06 08:15 | -36.57992 | 156.41474 | 39061 ft | 536 kts | 125° |
| 2026-05-06 08:15 | -36.62191 | 156.49125 | 39061 ft | 536 kts | 125° |
| 2026-05-06 08:16 | -36.66394 | 156.56802 | 39058 ft | 535 kts | 125° |
| 2026-05-06 08:16 | -36.70590 | 156.64484 | 39052 ft | 535 kts | 125° |
| 2026-05-06 08:17 | -36.74772 | 156.72155 | 39054 ft | 536 kts | 124° |
| 2026-05-06 08:17 | -36.78960 | 156.79856 | 39069 ft | 536 kts | 124° |
| 2026-05-06 08:18 | -36.83140 | 156.87559 | 39069 ft | 536 kts | 124° |
| 2026-05-06 08:18 | -36.87311 | 156.95265 | 39067 ft | 535 kts | 124° |
| 2026-05-06 08:19 | -36.91473 | 157.02970 | 39058 ft | 534 kts | 124° |
| 2026-05-06 08:19 | -36.95622 | 157.10670 | 39056 ft | 534 kts | 124° |
| 2026-05-06 08:20 | -36.99741 | 157.18330 | 39050 ft | 534 kts | 124° |
| 2026-05-06 08:20 | -37.03881 | 157.26049 | 39051 ft | 533 kts | 124° |
| 2026-05-06 08:21 | -37.08008 | 157.33760 | 39047 ft | 533 kts | 124° |
| 2026-05-06 08:21 | -37.12130 | 157.41480 | 39043 ft | 533 kts | 124° |
| 2026-05-06 08:22 | -37.16246 | 157.49206 | 39050 ft | 533 kts | 124° |
| 2026-05-06 08:22 | -37.20361 | 157.56949 | 39046 ft | 533 kts | 123° |
| 2026-05-06 08:23 | -37.24472 | 157.64702 | 39046 ft | 533 kts | 123° |
| 2026-05-06 08:23 | -37.28575 | 157.72456 | 39046 ft | 533 kts | 123° |
| 2026-05-06 08:24 | -37.32674 | 157.80223 | 39045 ft | 533 kts | 123° |
| 2026-05-06 08:24 | -37.36748 | 157.87958 | 39036 ft | 533 kts | 123° |
| 2026-05-06 08:25 | -37.40828 | 157.95725 | 39041 ft | 533 kts | 123° |
| 2026-05-06 08:25 | -37.44910 | 158.03514 | 39041 ft | 533 kts | 123° |
| 2026-05-06 08:26 | -37.48985 | 158.11300 | 39041 ft | 533 kts | 123° |
| 2026-05-06 08:26 | -37.53058 | 158.19094 | 39041 ft | 533 kts | 123° |
| 2026-05-06 08:27 | -37.57114 | 158.26918 | 39038 ft | 533 kts | 123° |
| 2026-05-06 08:27 | -37.61172 | 158.34752 | 39037 ft | 533 kts | 123° |
| 2026-05-06 08:28 | -37.65227 | 158.42574 | 39035 ft | 533 kts | 123° |
| 2026-05-06 08:28 | -37.69285 | 158.50417 | 39035 ft | 533 kts | 123° |
| 2026-05-06 08:29 | -37.73340 | 158.58283 | 39035 ft | 533 kts | 123° |
| 2026-05-06 08:29 | -37.77383 | 158.66145 | 39031 ft | 533 kts | 122° |
| 2026-05-06 08:30 | -37.81416 | 158.74010 | 39031 ft | 533 kts | 122° |
| 2026-05-06 08:30 | -37.85445 | 158.81884 | 39041 ft | 533 kts | 122° |
| 2026-05-06 08:31 | -37.89419 | 158.89669 | 39031 ft | 533 kts | 122° |
| 2026-05-06 08:31 | -37.93436 | 158.97557 | 39027 ft | 533 kts | 122° |
| 2026-05-06 08:32 | -37.97461 | 159.05479 | 39028 ft | 533 kts | 122° |
| 2026-05-06 08:32 | -38.01446 | 159.13343 | 39027 ft | 533 kts | 122° |
| 2026-05-06 08:33 | -38.05449 | 159.21259 | 39019 ft | 533 kts | 122° |
| 2026-05-06 08:33 | -38.09443 | 159.29178 | 39025 ft | 533 kts | 122° |
| 2026-05-06 08:34 | -38.15429 | 159.41084 | 39024 ft | 533 kts | 122° |
| 2026-05-06 08:35 | -38.19426 | 159.49057 | 39034 ft | 534 kts | 122° |
| 2026-05-06 08:35 | -38.23411 | 159.57025 | 39022 ft | 534 kts | 122° |
| 2026-05-06 08:36 | -38.27393 | 159.65007 | 39024 ft | 534 kts | 122° |
| 2026-05-06 08:36 | -38.31370 | 159.73000 | 39026 ft | 534 kts | 122° |
| 2026-05-06 08:37 | -38.35341 | 159.80998 | 39022 ft | 534 kts | 122° |
| 2026-05-06 08:37 | -38.39302 | 159.88997 | 39021 ft | 533 kts | 121° |
| 2026-05-06 08:38 | -38.43235 | 159.96959 | 39021 ft | 533 kts | 121° |
| 2026-05-06 08:38 | -38.47178 | 160.04961 | 39018 ft | 533 kts | 121° |
| 2026-05-06 08:39 | -38.51114 | 160.12970 | 39018 ft | 533 kts | 121° |
| 2026-05-06 08:39 | -38.55056 | 160.21008 | 39007 ft | 533 kts | 121° |
| 2026-05-06 08:40 | -38.58986 | 160.29045 | 39019 ft | 533 kts | 121° |
| 2026-05-06 08:40 | -38.62862 | 160.36992 | 39012 ft | 533 kts | 121° |
| 2026-05-06 08:41 | -38.66539 | 160.44547 | 39006 ft | 533 kts | 121° |
| 2026-05-06 08:41 | -38.69814 | 160.51293 | 39006 ft | 532 kts | 121° |
| 2026-05-06 08:42 | -38.74351 | 160.60655 | 39007 ft | 532 kts | 121° |
| 2026-05-06 08:42 | -38.78248 | 160.68722 | 39001 ft | 532 kts | 121° |
| 2026-05-06 08:43 | -38.82140 | 160.76798 | 39000 ft | 532 kts | 121° |
| 2026-05-06 08:43 | -38.85371 | 160.83518 | 39000 ft | 532 kts | 121° |
| 2026-05-06 08:44 | -38.89252 | 160.91609 | 38995 ft | 532 kts | 120° |
| 2026-05-06 08:44 | -38.93129 | 160.99712 | 38996 ft | 532 kts | 120° |
| 2026-05-06 08:45 | -38.96999 | 161.07822 | 38996 ft | 532 kts | 120° |
| 2026-05-06 08:45 | -39.00870 | 161.15955 | 38987 ft | 532 kts | 120° |
| 2026-05-06 08:46 | -39.04729 | 161.24081 | 38976 ft | 532 kts | 120° |
| 2026-05-06 08:46 | -39.08577 | 161.32206 | 38984 ft | 532 kts | 120° |
| 2026-05-06 08:47 | -39.12419 | 161.40340 | 38983 ft | 531 kts | 120° |
| 2026-05-06 08:47 | -39.16237 | 161.48444 | 38980 ft | 531 kts | 120° |
| 2026-05-06 08:48 | -39.20067 | 161.56593 | 38980 ft | 531 kts | 120° |
| 2026-05-06 08:48 | -39.23892 | 161.64753 | 38980 ft | 531 kts | 120° |
| 2026-05-06 08:49 | -39.27707 | 161.72914 | 38982 ft | 530 kts | 120° |
| 2026-05-06 08:49 | -39.31517 | 161.81085 | 38977 ft | 530 kts | 120° |
| 2026-05-06 08:50 | -39.35295 | 161.89205 | 38975 ft | 525 kts | 120° |
| 2026-05-06 08:50 | -39.39087 | 161.97379 | 38975 ft | 531 kts | 120° |
| 2026-05-06 08:51 | -39.42877 | 162.05570 | 38976 ft | 529 kts | 120° |
| 2026-05-06 08:51 | -39.46658 | 162.13762 | 38971 ft | 530 kts | 120° |
| 2026-05-06 08:52 | -39.50433 | 162.21962 | 38969 ft | 530 kts | 119° |
| 2026-05-06 08:52 | -39.54203 | 162.30174 | 38987 ft | 530 kts | 119° |
| 2026-05-06 08:53 | -39.57746 | 162.37914 | 38979 ft | 530 kts | 119° |
| 2026-05-06 08:53 | -39.60768 | 162.44526 | 38972 ft | 530 kts | 119° |
| 2026-05-06 08:54 | -39.64497 | 162.52708 | 38967 ft | 530 kts | 119° |
| 2026-05-06 08:54 | -39.68244 | 162.60950 | 38947 ft | 530 kts | 118° |
| 2026-05-06 08:55 | -39.71988 | 162.69206 | 38960 ft | 530 kts | 118° |
| 2026-05-06 08:55 | -39.75583 | 162.77154 | 38965 ft | 531 kts | 118° |
| 2026-05-06 08:56 | -39.79323 | 162.85441 | 38968 ft | 531 kts | 118° |
| 2026-05-06 08:56 | -39.83061 | 162.93730 | 38966 ft | 531 kts | 118° |
| 2026-05-06 08:57 | -39.86755 | 163.02056 | 38954 ft | 532 kts | 116° |